Sandy Lake Airport
CZSJ : now visible

Airfield :











YOU CAN JOIN US ON...

 
LOGIN :

Register | Disclaimer

   EN    FR    IT 

 









Legend :    VFR   Marginal VFR   IFR   Intensive IFR   Very Intensive IFR
Visi :
Ceiling :
>= 8 km
>= 3000ft
5 to 8 km
1000 to 3000 ft
1500m to 5 km
500 to 1000 ft
800 to 1500m
200 to 500 ft
< 800m
< 200 ft
Symbols :   Thunderstorms  Fog  Heavy snow  Heavy precipitations  Wind > 20 kt






- Airport Elevation : 951 ft
- IATA code : ZSJ


CZSJ - Sandy Lake

CURRENT METAR :
  • 282100Z AUTO 29011G17KT 260V320 9SM BKN036 M19/M29 A3001 RMK SLP204

EXPIRED METARs :
  • 282000Z AUTO 31013G18KT 260V330 9SM OVC034 M20/M29 A3000 RMK SLP201
  • 281900Z AUTO 30008KT 280V340 9SM OVC032 M20/M28 A3000 RMK SLP199
  • 281826Z AUTO 31007G17KT 8SM OVC030 M21/M29 A3000 RMK SLP195
  • 281816Z AUTO 32012KT 5SM HZ BKN032 M21/M28 A3000 RMK SLP196
  • 281700Z AUTO 29011G16KT 9SM CLR M22/M30 A3001 RMK SLP204

TAF TAF CZSJ
Valid from the 28 at 18:00 until the 28 at 23:00 UTC


281740Z 2818/2823 30010G20KT P6SM FEW020
TEMPO 2818/2823 5SM IC BKN020
BECMG 2821/2823 30008KT RMK FCST BASED ON AUTO OBS. NXT FCST BY 291100Z
CZWG FIR / North America



MET'MAP, your aeronautical weather chart ! - Copyright ORBIFLY December 2007 - Disclaimer

ORBIFLY MET'MAP TEAM :

Programming & Development : Alexandra Zaïnal
Original concept : Baudouin d'Aumeries
Technical & hardware support : Manuel Goepfert
Assistance : Marc-Olivier Méhu




SOURCES & CREDITS :

   NOAA       Earth
Advisory